createdAt,value
2023-04-08T00:01:30.412Z,9.00
2023-04-08T00:03:59.295Z,8.99
2023-04-08T00:06:28.142Z,8.98
2023-04-08T00:08:58.051Z,8.96
2023-04-08T00:11:26.496Z,8.97
2023-04-08T00:13:55.004Z,8.95
2023-04-08T00:16:23.968Z,8.95
2023-04-08T00:18:56.909Z,8.95
2023-04-08T00:21:28.119Z,8.95
2023-04-08T00:23:57.969Z,8.96
2023-04-08T00:26:26.447Z,8.98
2023-04-08T00:28:55.393Z,8.99
2023-04-08T00:31:23.988Z,9.00
2023-04-08T00:33:52.652Z,9.01
2023-04-08T00:36:21.185Z,9.02
2023-04-08T00:38:50.090Z,9.04
2023-04-08T00:41:20.461Z,9.05
2023-04-08T00:43:49.253Z,9.06
2023-04-08T00:46:17.965Z,9.06
2023-04-08T00:48:46.738Z,9.07
2023-04-08T00:51:16.257Z,9.04
2023-04-08T00:53:44.773Z,9.09
2023-04-08T00:56:13.317Z,9.07
2023-04-08T00:58:43.268Z,9.08
2023-04-08T01:01:16.158Z,9.09
2023-04-08T01:03:58.553Z,9.08
2023-04-08T01:06:33.759Z,9.09
2023-04-08T01:09:05.984Z,9.09
2023-04-08T01:11:36.565Z,9.10
2023-04-08T01:14:10.246Z,9.09
2023-04-08T01:16:42.409Z,9.10
2023-04-08T01:19:18.916Z,9.10
2023-04-08T01:21:48.050Z,9.10
2023-04-08T01:24:22.063Z,9.09
2023-04-08T01:26:52.037Z,9.09
2023-04-08T01:29:21.379Z,9.08
2023-04-08T01:31:50.650Z,9.09
2023-04-08T01:34:20.764Z,9.07
2023-04-08T01:36:50.956Z,9.07
2023-04-08T01:39:21.665Z,9.06
2023-04-08T01:41:54.807Z,9.05
2023-04-08T01:44:24.114Z,9.06
2023-04-08T01:46:54.181Z,9.04
2023-04-08T01:49:25.327Z,9.04
2023-04-08T01:51:56.632Z,9.03
2023-04-08T01:54:25.253Z,9.03
2023-04-08T01:56:57.336Z,9.04
2023-04-08T01:59:31.196Z,9.04
2023-04-08T02:02:01.774Z,9.03
2023-04-08T02:04:30.559Z,9.03
2023-04-08T02:06:59.426Z,9.02
2023-04-08T02:09:27.981Z,9.02
2023-04-08T02:11:58.148Z,9.00
2023-04-08T02:14:27.221Z,9.00
2023-04-08T02:17:06.606Z,9.00
2023-04-08T02:19:44.761Z,8.99
2023-04-08T02:22:19.427Z,8.99
2023-04-08T02:24:48.282Z,8.99
2023-04-08T02:27:19.490Z,9.00
2023-04-08T02:29:50.670Z,9.00
2023-04-08T02:32:19.884Z,9.00
2023-04-08T02:34:50.374Z,8.99
2023-04-08T02:37:18.981Z,8.98
2023-04-08T02:39:47.555Z,8.97
2023-04-08T02:42:16.119Z,8.96
2023-04-08T02:44:46.150Z,8.95
2023-04-08T02:47:14.719Z,8.93
2023-04-08T02:49:43.719Z,8.92
2023-04-08T02:52:12.292Z,8.90
2023-04-08T02:54:41.094Z,8.90
2023-04-08T02:57:10.772Z,8.88
2023-04-08T02:59:40.963Z,8.88
2023-04-08T03:02:11.474Z,8.84
2023-04-08T03:04:40.058Z,8.84
2023-04-08T03:07:08.839Z,8.84
2023-04-08T03:09:37.684Z,8.83
2023-04-08T03:12:07.218Z,8.82
2023-04-08T03:14:36.012Z,8.80
2023-04-08T03:17:04.466Z,8.80
2023-04-08T03:19:34.325Z,8.78
2023-04-08T03:22:02.819Z,8.77
2023-04-08T03:24:31.282Z,8.77
2023-04-08T03:26:59.775Z,8.75
2023-04-08T03:29:28.341Z,8.74
2023-04-08T03:31:56.979Z,8.75
2023-04-08T03:34:25.530Z,8.73
2023-04-08T03:36:55.641Z,8.71
2023-04-08T03:39:24.085Z,8.72
2023-04-08T03:41:52.611Z,8.71
2023-04-08T03:44:21.172Z,8.70
2023-04-08T03:46:49.622Z,8.69
2023-04-08T03:49:18.126Z,8.68
2023-04-08T03:51:46.663Z,8.68
2023-04-08T03:54:16.785Z,8.67
2023-04-08T03:56:45.282Z,8.66
2023-04-08T03:59:13.778Z,8.66
2023-04-08T04:01:42.394Z,8.66
2023-04-08T04:04:11.322Z,8.64
2023-04-08T04:06:40.063Z,8.63
2023-04-08T04:09:08.538Z,8.63
2023-04-08T04:11:38.493Z,8.62
2023-04-08T04:14:06.910Z,8.61
2023-04-08T04:16:35.526Z,8.60
2023-04-08T04:19:04.018Z,8.61
2023-04-08T04:21:32.598Z,8.58
2023-04-08T04:24:01.093Z,8.57
2023-04-08T04:26:29.584Z,8.57
2023-04-08T04:28:59.393Z,8.55
2023-04-08T04:31:28.107Z,8.53
2023-04-08T04:33:56.650Z,8.52
2023-04-08T04:36:25.129Z,8.51
2023-04-08T04:38:53.940Z,8.50
2023-04-08T04:41:22.975Z,8.48
2023-04-08T04:43:51.731Z,8.47
2023-04-08T04:46:21.728Z,8.42
2023-04-08T04:48:51.562Z,8.39
2023-04-08T04:51:20.174Z,8.36
2023-04-08T04:53:49.949Z,8.33
2023-04-08T04:56:18.408Z,8.30
2023-04-08T04:58:46.895Z,8.26
2023-04-08T05:01:15.681Z,8.20
2023-04-08T05:03:45.671Z,8.18
2023-04-08T05:06:14.192Z,8.17
2023-04-08T05:08:42.659Z,8.15
2023-04-08T05:11:11.548Z,8.17
2023-04-08T05:13:40.171Z,8.18
2023-04-08T05:16:09.178Z,8.18
2023-04-08T05:18:38.019Z,8.19
2023-04-08T05:21:07.866Z,8.20
2023-04-08T05:23:36.483Z,8.20
2023-04-08T05:26:08.326Z,8.18
2023-04-08T05:28:37.245Z,8.17
2023-04-08T05:31:05.894Z,8.13
2023-04-08T05:33:34.374Z,8.07
2023-04-08T05:36:03.072Z,8.02
2023-04-08T05:38:32.928Z,7.98
2023-04-08T05:41:01.729Z,7.97
2023-04-08T05:43:30.341Z,7.98
2023-04-08T05:45:58.929Z,8.01
2023-04-08T05:48:27.390Z,8.02
2023-04-08T05:50:55.987Z,8.02
2023-04-08T05:53:24.988Z,8.04
2023-04-08T05:55:54.947Z,8.04
2023-04-08T05:58:23.440Z,8.05
2023-04-08T06:00:51.927Z,8.06
2023-04-08T06:03:21.012Z,8.05
2023-04-08T06:05:49.679Z,8.06
2023-04-08T06:08:18.170Z,8.06
2023-04-08T06:10:51.419Z,8.02
2023-04-08T06:13:22.016Z,7.98
2023-04-08T06:15:50.746Z,7.97
2023-04-08T06:18:19.197Z,7.95
2023-04-08T06:20:47.775Z,7.94
2023-04-08T06:23:16.551Z,7.93
2023-04-08T06:25:45.185Z,7.93
2023-04-08T06:28:13.785Z,7.93
2023-04-08T06:30:43.572Z,7.96
2023-04-08T06:33:12.046Z,7.97
2023-04-08T06:35:40.638Z,7.98
2023-04-08T06:38:09.151Z,7.99
2023-04-08T06:40:40.582Z,7.99
2023-04-08T06:43:08.965Z,8.01
2023-04-08T06:45:42.919Z,8.03
2023-04-08T06:48:12.877Z,8.04
2023-04-08T06:50:41.288Z,8.05
2023-04-08T06:53:09.818Z,8.05
2023-04-08T06:55:38.292Z,8.06
2023-04-08T06:58:06.818Z,8.08
2023-04-08T07:00:35.734Z,8.10
2023-04-08T07:03:04.354Z,8.12
2023-04-08T07:05:36.861Z,8.14
2023-04-08T07:08:05.588Z,8.15
2023-04-08T07:10:34.166Z,8.19
2023-04-08T07:13:02.656Z,8.21
2023-04-08T07:15:31.373Z,8.21
2023-04-08T07:18:00.117Z,8.21
2023-04-08T07:20:30.261Z,8.23
2023-04-08T07:23:01.409Z,8.25
2023-04-08T07:25:29.923Z,8.26
2023-04-08T07:27:58.618Z,8.29
2023-04-08T07:30:27.107Z,8.31
2023-04-08T07:32:56.564Z,8.32
2023-04-08T07:35:26.438Z,8.33
2023-04-08T07:37:55.106Z,8.37
2023-04-08T07:40:25.332Z,8.41
2023-04-08T07:42:54.360Z,8.45
2023-04-08T07:45:22.926Z,8.49
2023-04-08T07:47:51.530Z,8.53
2023-04-08T07:50:20.210Z,8.57
2023-04-08T07:52:48.813Z,8.62
2023-04-08T07:55:17.474Z,8.67
2023-04-08T07:57:47.711Z,8.70
2023-04-08T08:00:21.513Z,8.72
2023-04-08T08:02:50.103Z,8.75
2023-04-08T08:05:19.018Z,8.76
2023-04-08T08:07:47.459Z,8.80
2023-04-08T08:10:16.109Z,8.82
2023-04-08T08:12:44.550Z,8.86
2023-04-08T08:15:14.882Z,8.89
2023-04-08T08:17:43.253Z,8.91
2023-04-08T08:20:12.571Z,8.93
2023-04-08T08:22:50.798Z,8.94
2023-04-08T08:25:26.258Z,8.96
2023-04-08T08:27:55.546Z,8.98
2023-04-08T08:30:26.551Z,8.97
2023-04-08T08:32:59.046Z,8.99
2023-04-08T08:35:27.794Z,9.02
2023-04-08T08:37:56.296Z,9.03
2023-04-08T08:40:24.943Z,9.04
2023-04-08T08:42:54.232Z,9.05
2023-04-08T08:45:22.838Z,9.05
2023-04-08T08:47:52.753Z,9.06
2023-04-08T08:50:21.502Z,9.06
2023-04-08T08:52:50.778Z,9.05
2023-04-08T08:55:34.977Z,9.06
2023-04-08T08:58:05.674Z,9.07
2023-04-08T09:00:35.056Z,9.09
2023-04-08T09:03:19.389Z,9.11
2023-04-08T09:05:52.817Z,9.12
2023-04-08T09:08:26.293Z,9.14
2023-04-08T09:10:55.030Z,9.14
2023-04-08T09:13:24.659Z,9.15
2023-04-08T09:16:05.086Z,9.17
2023-04-08T09:18:35.702Z,9.19
2023-04-08T09:21:05.497Z,9.23
2023-04-08T09:23:44.366Z,9.27
2023-04-08T09:26:14.745Z,9.32
2023-04-08T09:28:44.850Z,9.38
2023-04-08T09:31:21.598Z,9.43
2023-04-08T09:33:52.458Z,9.48
2023-04-08T09:36:21.183Z,9.53
2023-04-08T09:38:49.995Z,9.56
2023-04-08T09:41:20.561Z,9.59
2023-04-08T09:43:50.726Z,9.63
2023-04-08T09:46:22.732Z,9.66
2023-04-08T09:49:04.357Z,9.69
2023-04-08T09:51:37.761Z,9.74
2023-04-08T09:54:14.893Z,9.75
2023-04-08T09:56:48.953Z,9.75
2023-04-08T09:59:21.699Z,9.76
2023-04-08T10:01:54.931Z,9.75
2023-04-08T10:04:27.713Z,9.75
2023-04-08T10:07:03.497Z,9.76
2023-04-08T10:09:32.973Z,9.77
2023-04-08T10:12:02.991Z,9.81
2023-04-08T10:14:31.446Z,9.88
2023-04-08T10:17:28.486Z,9.99
2023-04-08T10:19:58.877Z,10.08
2023-04-08T10:22:51.864Z,10.19
2023-04-08T10:25:31.488Z,10.28
2023-04-08T10:28:00.591Z,10.37
2023-04-08T10:30:41.028Z,10.47
2023-04-08T10:33:12.416Z,10.58
2023-04-08T10:35:46.447Z,10.67
2023-04-08T10:38:16.015Z,10.77
2023-04-08T10:40:45.962Z,10.87
2023-04-08T10:43:15.963Z,10.91
2023-04-08T10:45:48.552Z,10.93
2023-04-08T10:48:19.875Z,10.92
2023-04-08T10:50:56.112Z,10.88
2023-04-08T10:53:28.419Z,10.86
2023-04-08T10:56:05.518Z,10.86
2023-04-08T10:58:34.231Z,10.84
2023-04-08T11:01:08.348Z,10.83
2023-04-08T11:03:38.151Z,10.80
2023-04-08T11:06:08.438Z,10.77
2023-04-08T11:08:37.990Z,10.77
2023-04-08T11:11:09.216Z,10.79
2023-04-08T11:13:38.563Z,10.85
2023-04-08T11:16:17.871Z,10.85
2023-04-08T11:18:48.207Z,10.81
2023-04-08T11:21:18.454Z,10.78
2023-04-08T11:23:51.177Z,10.79
2023-04-08T11:26:21.149Z,10.78
2023-04-08T11:28:51.583Z,10.76
2023-04-08T11:31:24.374Z,10.74
2023-04-08T11:33:56.248Z,10.74
2023-04-08T11:36:27.386Z,10.75
2023-04-08T11:38:56.489Z,10.77
2023-04-08T11:41:25.142Z,10.80
2023-04-08T11:43:54.903Z,10.82
2023-04-08T11:46:24.127Z,10.84
2023-04-08T11:49:02.529Z,10.87
2023-04-08T11:51:32.710Z,10.87
2023-04-08T11:54:01.673Z,10.89
2023-04-08T11:56:33.619Z,10.90
2023-04-08T11:59:02.460Z,10.91
2023-04-08T12:01:30.977Z,10.92
2023-04-08T12:04:03.175Z,10.86
2023-04-08T12:06:33.238Z,10.77
2023-04-08T12:09:01.763Z,10.74
2023-04-08T12:11:30.711Z,10.72
2023-04-08T12:13:59.273Z,10.72
2023-04-08T12:16:27.842Z,10.69
2023-04-08T12:18:56.440Z,10.69
2023-04-08T12:21:24.938Z,10.71
2023-04-08T12:23:55.297Z,10.76
2023-04-08T12:26:24.428Z,10.78
2023-04-08T12:28:53.199Z,10.87
2023-04-08T12:31:22.741Z,10.98
2023-04-08T12:33:51.651Z,11.08
2023-04-08T12:36:20.520Z,11.22
2023-04-08T12:38:49.389Z,11.35
2023-04-08T12:41:19.473Z,11.49
2023-04-08T12:43:48.083Z,11.63
2023-04-08T12:46:16.978Z,11.74
2023-04-08T12:48:47.598Z,11.83
2023-04-08T12:51:16.641Z,11.90
2023-04-08T12:53:45.340Z,11.90
2023-04-08T12:56:14.109Z,11.83
2023-04-08T12:58:44.150Z,11.72
2023-04-08T13:01:13.361Z,11.62
2023-04-08T13:03:45.029Z,11.61
2023-04-08T13:06:15.689Z,11.63
2023-04-08T13:08:47.305Z,11.66
2023-04-08T13:11:16.050Z,11.72
2023-04-08T13:13:46.461Z,11.77
2023-04-08T13:16:15.456Z,11.83
2023-04-08T13:18:44.565Z,11.87
2023-04-08T13:21:13.209Z,11.94
2023-04-08T13:23:41.899Z,11.96
2023-04-08T13:26:12.375Z,11.94
2023-04-08T13:28:55.848Z,11.93
2023-04-08T13:31:27.775Z,11.97
2023-04-08T13:33:58.168Z,12.01
2023-04-08T13:36:29.078Z,11.99
2023-04-08T13:38:57.833Z,11.95
2023-04-08T13:41:28.231Z,11.93
2023-04-08T13:43:57.716Z,11.91
2023-04-08T13:46:28.217Z,11.92
2023-04-08T13:48:57.690Z,11.95
2023-04-08T13:51:27.386Z,11.93
2023-04-08T13:53:56.401Z,11.93
2023-04-08T13:56:25.234Z,11.96
2023-04-08T13:58:57.482Z,11.96
2023-04-08T14:01:28.293Z,11.94
2023-04-08T14:03:59.771Z,11.89
2023-04-08T14:06:28.690Z,11.89
2023-04-08T14:08:57.441Z,11.90
2023-04-08T14:11:26.409Z,11.94
2023-04-08T14:13:55.009Z,11.97
2023-04-08T14:16:23.944Z,12.01
2023-04-08T14:18:54.427Z,12.07
2023-04-08T14:21:23.498Z,12.13
2023-04-08T14:23:52.645Z,12.18
2023-04-08T14:26:22.174Z,12.16
2023-04-08T14:28:51.640Z,12.13
2023-04-08T14:31:20.657Z,12.08
2023-04-08T14:33:55.090Z,12.02
2023-04-08T14:36:26.001Z,11.99
2023-04-08T14:38:55.175Z,11.96
2023-04-08T14:41:26.342Z,11.93
2023-04-08T14:43:55.575Z,11.92
2023-04-08T14:46:27.295Z,11.92
2023-04-08T14:48:59.041Z,11.95
2023-04-08T14:51:31.236Z,11.99
2023-04-08T14:54:02.146Z,11.99
2023-04-08T14:56:32.628Z,11.97
2023-04-08T14:59:02.914Z,11.96
2023-04-08T15:01:34.047Z,11.92
2023-04-08T15:04:04.216Z,11.87
2023-04-08T15:06:35.831Z,11.84
2023-04-08T15:09:05.691Z,11.82
2023-04-08T15:11:34.759Z,11.79
2023-04-08T15:14:03.411Z,11.76
2023-04-08T15:16:33.102Z,11.74
2023-04-08T15:19:02.496Z,11.75
2023-04-08T15:21:34.265Z,11.78
2023-04-08T15:24:03.425Z,11.79
2023-04-08T15:26:33.250Z,11.82
2023-04-08T15:29:04.887Z,11.80
2023-04-08T15:31:35.827Z,11.79
2023-04-08T15:34:07.658Z,11.78
2023-04-08T15:36:40.522Z,11.77
2023-04-08T15:39:11.798Z,11.76
2023-04-08T15:41:41.948Z,11.73
2023-04-08T15:44:12.560Z,11.70
2023-04-08T15:46:43.186Z,11.69
2023-04-08T15:49:12.465Z,11.68
2023-04-08T15:51:45.723Z,11.66
2023-04-08T15:54:15.128Z,11.64
2023-04-08T15:56:45.795Z,11.63
2023-04-08T15:59:15.038Z,11.59
2023-04-08T16:01:44.362Z,11.57
2023-04-08T16:04:14.474Z,11.53
2023-04-08T16:06:49.372Z,11.53
2023-04-08T16:09:22.536Z,11.49
2023-04-08T16:11:55.802Z,11.45
2023-04-08T16:14:33.001Z,11.41
2023-04-08T16:17:05.168Z,11.38
2023-04-08T16:19:34.130Z,11.37
2023-04-08T16:22:08.752Z,11.36
2023-04-08T16:24:43.717Z,11.36
2023-04-08T16:27:14.793Z,11.35
2023-04-08T16:29:44.914Z,11.36
2023-04-08T16:32:15.469Z,11.38
2023-04-08T16:34:47.638Z,11.38
2023-04-08T16:37:18.683Z,11.36
2023-04-08T16:39:48.843Z,11.35
2023-04-08T16:42:18.821Z,11.35
2023-04-08T16:44:48.844Z,11.34
2023-04-08T16:47:19.006Z,11.34
2023-04-08T16:49:50.312Z,11.32
2023-04-08T16:52:22.077Z,11.31
2023-04-08T16:54:53.340Z,11.30
2023-04-08T16:57:23.184Z,11.30
2023-04-08T16:59:52.358Z,11.30
2023-04-08T17:02:22.400Z,11.30
2023-04-08T17:04:52.377Z,11.30
2023-04-08T17:07:23.846Z,11.31
2023-04-08T17:09:53.740Z,11.34
2023-04-08T17:12:23.783Z,11.33
2023-04-08T17:14:53.614Z,11.34
2023-04-08T17:17:23.402Z,11.36
2023-04-08T17:19:52.077Z,11.36
2023-04-08T17:22:23.661Z,11.37
2023-04-08T17:24:53.647Z,11.36
2023-04-08T17:27:26.768Z,11.34
2023-04-08T17:29:58.840Z,11.32
2023-04-08T17:32:28.896Z,11.29
2023-04-08T17:35:00.348Z,11.27
2023-04-08T17:37:33.731Z,11.26
2023-04-08T17:40:03.732Z,11.24
2023-04-08T17:42:33.795Z,11.22
2023-04-08T17:45:03.551Z,11.19
2023-04-08T17:47:33.895Z,11.18
2023-04-08T17:50:03.877Z,11.15
2023-04-08T17:52:35.356Z,11.12
2023-04-08T17:55:06.856Z,11.09
2023-04-08T17:57:36.209Z,11.06
2023-04-08T18:00:07.379Z,11.02
2023-04-08T18:02:38.148Z,11.01
2023-04-08T18:05:08.109Z,10.98
2023-04-08T18:07:38.533Z,10.95
2023-04-08T18:10:09.521Z,10.92
2023-04-08T18:12:38.584Z,10.88
2023-04-08T18:15:10.769Z,10.88
2023-04-08T18:17:41.389Z,10.86
2023-04-08T18:20:13.867Z,10.85
2023-04-08T18:22:49.656Z,10.82
2023-04-08T18:25:24.234Z,10.78
2023-04-08T18:27:56.890Z,10.77
2023-04-08T18:30:29.314Z,10.75
2023-04-08T18:32:58.575Z,10.74
2023-04-08T18:35:27.935Z,10.72
2023-04-08T18:37:58.065Z,10.71
2023-04-08T18:40:28.712Z,10.69
2023-04-08T18:43:02.073Z,10.68
2023-04-08T18:45:31.879Z,10.67
2023-04-08T18:48:01.192Z,10.66
2023-04-08T18:50:31.491Z,10.64
2023-04-08T18:53:05.590Z,10.63
2023-04-08T18:55:38.958Z,10.60
2023-04-08T18:58:12.704Z,10.57
2023-04-08T19:00:44.142Z,10.54
2023-04-08T19:03:13.863Z,10.52
2023-04-08T19:05:44.952Z,10.48
2023-04-08T19:08:19.117Z,10.45
2023-04-08T19:10:51.700Z,10.41
2023-04-08T19:13:23.997Z,10.39
2023-04-08T19:15:55.055Z,10.34
2023-04-08T19:18:24.479Z,10.33
2023-04-08T19:20:54.106Z,10.30
2023-04-08T19:23:25.923Z,10.28
2023-04-08T19:25:57.962Z,10.25
2023-04-08T19:28:27.455Z,10.22
2023-04-08T19:31:01.443Z,10.21
2023-04-08T19:33:38.095Z,10.19
2023-04-08T19:36:07.521Z,10.17
2023-04-08T19:38:39.647Z,10.16
2023-04-08T19:41:09.855Z,10.15
2023-04-08T19:43:40.706Z,10.13
2023-04-08T19:46:12.095Z,10.11
2023-04-08T19:48:45.392Z,10.11
2023-04-08T19:51:22.745Z,10.09
2023-04-08T19:53:53.620Z,10.09
2023-04-08T19:56:23.221Z,10.08
2023-04-08T19:58:54.069Z,10.08
2023-04-08T20:01:24.878Z,10.08
2023-04-08T20:03:55.354Z,10.06
2023-04-08T20:06:24.431Z,10.06
2023-04-08T20:08:56.152Z,10.07
2023-04-08T20:11:25.189Z,10.06
2023-04-08T20:13:54.488Z,10.05
2023-04-08T20:16:24.091Z,10.06
2023-04-08T20:18:53.656Z,10.07
2023-04-08T20:21:24.550Z,10.06
2023-04-08T20:23:57.273Z,10.07
2023-04-08T20:26:27.822Z,10.06
2023-04-08T20:28:59.204Z,10.05
2023-04-08T20:31:28.365Z,10.06
2023-04-08T20:33:58.407Z,10.06
2023-04-08T20:36:29.909Z,10.06
2023-04-08T20:39:04.923Z,10.05
2023-04-08T20:41:37.139Z,10.05
2023-04-08T20:44:10.748Z,10.04
2023-04-08T20:46:40.964Z,10.01
2023-04-08T20:49:12.582Z,9.99
2023-04-08T20:51:43.451Z,9.96
2023-04-08T20:54:17.060Z,9.91
2023-04-08T20:56:46.504Z,9.87
2023-04-08T20:59:16.724Z,9.84
2023-04-08T21:01:49.589Z,9.79
2023-04-08T21:04:19.251Z,9.72
2023-04-08T21:06:50.456Z,9.67
2023-04-08T21:09:22.873Z,9.63
2023-04-08T21:11:52.753Z,9.59
2023-04-08T21:14:22.847Z,9.55
2023-04-08T21:16:53.919Z,9.50
2023-04-08T21:19:24.116Z,9.47
2023-04-08T21:21:53.688Z,9.45
2023-04-08T21:24:24.977Z,9.41
2023-04-08T21:26:56.647Z,9.39
2023-04-08T21:29:27.067Z,9.37
2023-04-08T21:31:57.056Z,9.37
2023-04-08T21:34:27.688Z,9.38
2023-04-08T21:36:58.283Z,9.37
2023-04-08T21:39:29.444Z,9.38
2023-04-08T21:42:00.778Z,9.39
2023-04-08T21:44:32.025Z,9.39
2023-04-08T21:47:02.383Z,9.40
2023-04-08T21:49:33.377Z,9.40
2023-04-08T21:52:05.066Z,9.41
2023-04-08T21:54:37.042Z,9.41
2023-04-08T21:57:07.688Z,9.42
2023-04-08T21:59:39.198Z,9.42
2023-04-08T22:02:11.858Z,9.42
2023-04-08T22:04:42.709Z,9.42
2023-04-08T22:07:14.307Z,9.42
2023-04-08T22:09:51.165Z,9.42
2023-04-08T22:12:22.162Z,9.42
2023-04-08T22:14:52.775Z,9.43
2023-04-08T22:17:23.171Z,9.44
2023-04-08T22:19:54.992Z,9.45
2023-04-08T22:22:25.711Z,9.44
2023-04-08T22:24:59.056Z,9.44
2023-04-08T22:27:30.197Z,9.43
2023-04-08T22:30:00.430Z,9.44
2023-04-08T22:32:30.173Z,9.44
2023-04-08T22:35:00.958Z,9.44
2023-04-08T22:37:30.468Z,9.45
2023-04-08T22:40:04.897Z,9.45
2023-04-08T22:42:34.412Z,9.44
2023-04-08T22:45:05.249Z,9.44
2023-04-08T22:47:36.706Z,9.43
2023-04-08T22:50:07.155Z,9.42
2023-04-08T22:52:38.633Z,9.41
2023-04-08T22:55:11.751Z,9.40
2023-04-08T22:57:41.948Z,9.38
2023-04-08T23:00:13.447Z,9.39
2023-04-08T23:02:45.287Z,9.38
2023-04-08T23:05:15.734Z,9.36
2023-04-08T23:07:46.887Z,9.35
2023-04-08T23:10:19.074Z,9.33
2023-04-08T23:12:50.637Z,9.33
2023-04-08T23:15:21.365Z,9.32
2023-04-08T23:17:53.516Z,9.32
2023-04-08T23:20:24.158Z,9.31
2023-04-08T23:22:54.559Z,9.29
2023-04-08T23:25:25.756Z,9.28
2023-04-08T23:27:55.838Z,9.26
2023-04-08T23:30:26.880Z,9.26
2023-04-08T23:32:58.875Z,9.25
2023-04-08T23:35:28.496Z,9.24
2023-04-08T23:37:59.542Z,9.23
2023-04-08T23:40:31.868Z,9.21
2023-04-08T23:43:02.728Z,9.19
2023-04-08T23:45:35.473Z,9.17
2023-04-08T23:48:05.165Z,9.14
2023-04-08T23:50:34.939Z,9.12
2023-04-08T23:53:04.305Z,9.10
2023-04-08T23:55:36.511Z,9.06
2023-04-08T23:58:07.705Z,9.04
